Warsaw, OH (43844)

3:01 PM EDT on September 23, 2014 (GMT -0400)
Jake's Weather at Home | Change Station
CLOSE
Current Station
Personal Weather Station
Location: Fallsburg, OH
Elevation: 974 ft
Nearby Weather Stations

Elev 974 ft 40.18 °N, 82.27 °W | Updated 52 seconds ago

Clear
Clear
68.6 °F
Feels Like 68.6 °F
N
0.0
Wind Variable Wind from SSW
Gusts 0.0 mph

Today
High -- | Low -- °F
--% Chance of Precip.
Yesterday
High -- | Low -- °F
Precip. -- in
7:16 AM 7:23 PM
Waning Crescent, 0% visible
Pressure 30.35 in
Visibility 10.0 miles
Clouds Clear
Dew Point 51 °F
Humidity 53%
Rainfall 0.00 in
Snow Depth Not available.
UV 7 out of 12
Pollen 3.30 out of 12
Ozone Good
PM2.5 Good
Flu Activity Not available.
METAR K4I3 231836Z AUTO 05004KT 10SM CLR 20/06 A3035 RMK AO2

More Conditions Fewer Conditions

Pressure 30.35 in
Visibility 10.0 miles
Clouds Clear
Dew Point 51 °F
Humidity 53%
Rainfall 0.00 in
Snow Depth Not available.
UV 7 out of 12
Pollen 3.30 out of 12
Ozone Good
PM2.5 Good
Flu Activity Not available.
METAR K4I3 231836Z AUTO 05004KT 10SM CLR 20/06 A3035 RMK AO2

More Conditions Fewer Conditions

10-Day Weather Forecast

Almanac

Astronomy

Sep. 23, 2014 Rise Set
Actual Time 7:16 AM EDT 7:23 PM EDT
Civil Twilight 6:49 AM EDT 7:50 PM EDT
Nautical Twilight 6:17 AM EDT 8:22 PM EDT
Astronomical Twilight 5:45 AM EDT 8:54 PM EDT
Moon 6:39 AM EDT 7:01 PM EDT
Length of Visible Light 13h 01m
Length of Day
12h 06m
Tomorrow will be 2m 39s shorter.
Waning Crescent, 0% of the Moon is Illuminated
Today
Waning Crescent
Sep 24
New
Oct 1
First Quarter
Oct 8
Full
Oct 15
Last Quarter

Today's Extremes

State Highs State Lows

Community

WunderPhotos

Upload Photos

1,755,783 photos uploaded!

Nearby

Air Quality

  Air Quality AQ Index Pollutant
Yesterday Good
OZONE
Yesterday Good
PM2.5
Current Good
OZONE
Current Good
PM2.5
Tuesday Good
OZONE
Tuesday Good
PM2.5
Wednesday Good
OZONE
Wednesday Good
PM2.5
Thursday Moderate
OZONE
Thursday Good
PM2.5
Friday Moderate
OZONE
Friday Good
PM2.5
Saturday Moderate
OZONE
Saturday Good
PM2.5
Sunday Moderate
OZONE
Sunday Good
PM2.5

Snow Depth

Station Depth Elevation
No new snow has been reported.

Earthquake Activity

City Distance Mag. Time & Date
No recent earthquake activity has been reported nearby.
Minimum magnitude displayed is 2.5.

Coastal Water Temperatures

Place Temperature
No Stations Reporting

Nearby Weather Stations